Time;durP1;ratioP1;P1;durP2;ratioP2;P2;SDS_P1;SDS_P2;PMS_P1;PMS_P2;Temp;Humidity;BMP_temperature;BMP_pressure;BME280_temperature;BME280_humidity;BME280_pressure;Samples;Min_cycle;Max_cycle;Signal;HPM_P1;HPM_P2
2023/07/22 00:00:16;;;;;;;3.58;1.98;;;13.40;99.90;;;;;;5074280;28;20076;-58
2023/07/22 00:02:42;;;;;;;4.30;1.70;;;13.30;99.90;;;;;;5067860;28;20094;-57
2023/07/22 00:05:10;;;;;;;3.00;1.75;;;13.30;99.90;;;;;;5065229;28;20497;-58
2023/07/22 00:07:36;;;;;;;3.40;1.42;;;13.20;99.90;;;;;;5073684;28;20044;-57
2023/07/22 00:10:02;;;;;;;6.75;1.60;;;13.20;99.90;;;;;;5090040;28;20035;-57
2023/07/22 00:12:28;;;;;;;2.55;1.40;;;13.20;99.90;;;;;;5055375;28;20118;-58
2023/07/22 00:14:54;;;;;;;3.17;1.40;;;13.20;99.90;;;;;;5071031;28;20610;-57
2023/07/22 00:17:20;;;;;;;3.88;1.25;;;13.20;99.90;;;;;;5071389;28;20052;-57
2023/07/22 00:19:47;;;;;;;7.10;2.22;;;13.20;99.90;;;;;;5051975;28;20040;-57
2023/07/22 00:22:15;;;;;;;4.88;1.92;;;13.30;99.90;;;;;;5068877;28;20044;-58
2023/07/22 00:24:41;;;;;;;4.70;1.55;;;13.30;99.90;;;;;;5034823;28;20530;-58
2023/07/22 00:27:08;;;;;;;2.47;1.27;;;13.30;99.90;;;;;;5086999;28;20558;-58
2023/07/22 00:29:35;;;;;;;3.28;1.65;;;13.40;99.90;;;;;;5088856;28;20036;-58
2023/07/22 00:32:01;;;;;;;6.88;1.63;;;13.40;99.90;;;;;;5071647;28;20040;-58
2023/07/22 00:34:26;;;;;;;3.75;1.25;;;13.30;99.90;;;;;;5071299;28;20653;-58
2023/07/22 00:36:52;;;;;;;2.75;0.88;;;13.30;99.90;;;;;;5070387;28;20062;-58
2023/07/22 00:39:18;;;;;;;4.90;2.17;;;13.20;99.90;;;;;;5071440;28;20044;-58
2023/07/22 00:41:45;;;;;;;2.28;1.13;;;13.20;99.90;;;;;;5089544;28;20063;-58
2023/07/22 00:44:12;;;;;;;3.10;1.27;;;13.10;99.90;;;;;;5054117;28;20062;-57
2023/07/22 00:46:38;;;;;;;4.75;1.88;;;13.10;99.90;;;;;;5089185;28;20040;-58
2023/07/22 00:49:07;;;;;;;4.35;1.55;;;13.10;99.90;;;;;;5089762;28;20035;-58
2023/07/22 00:51:33;;;;;;;5.80;1.38;;;13.00;99.90;;;;;;5070496;28;20079;-57
2023/07/22 00:53:59;;;;;;;5.30;1.42;;;13.00;99.90;;;;;;5089278;28;20036;-58
2023/07/22 00:56:25;;;;;;;1.77;1.13;;;13.00;99.90;;;;;;5089239;28;20035;-58
2023/07/22 00:58:52;;;;;;;5.97;1.25;;;12.90;99.90;;;;;;5072571;28;20169;-58
2023/07/22 01:01:18;;;;;;;2.17;1.02;;;12.90;99.90;;;;;;5071537;28;20189;-57
2023/07/22 01:03:46;;;;;;;3.30;1.20;;;12.80;99.90;;;;;;5074128;28;20540;-58
2023/07/22 01:06:14;;;;;;;5.38;1.58;;;12.70;99.90;;;;;;5075583;28;20396;-58
2023/07/22 01:08:40;;;;;;;3.25;1.10;;;12.60;99.90;;;;;;5075068;28;20052;-58
2023/07/22 01:11:06;;;;;;;3.40;1.38;;;12.60;99.90;;;;;;5074563;28;20489;-58
2023/07/22 01:13:31;;;;;;;4.55;0.80;;;12.50;99.90;;;;;;5058641;28;20036;-58
2023/07/22 01:15:58;;;;;;;5.03;1.77;;;12.50;99.90;;;;;;5075273;28;20393;-58
2023/07/22 01:18:24;;;;;;;1.92;1.13;;;12.40;99.90;;;;;;5074372;28;20093;-58
2023/07/22 01:20:50;;;;;;;2.53;1.17;;;12.30;99.90;;;;;;5093274;28;20044;-58
2023/07/22 01:23:16;;;;;;;3.70;1.75;;;12.20;99.90;;;;;;5057871;28;20635;-58
2023/07/22 01:25:43;;;;;;;3.95;1.33;;;12.10;99.90;;;;;;5071862;28;20110;-58
2023/07/22 01:28:10;;;;;;;3.30;1.23;;;12.10;99.90;;;;;;5072716;28;20094;-58
2023/07/22 01:30:36;;;;;;;2.28;0.95;;;12.10;99.90;;;;;;5072467;28;20378;-58
2023/07/22 01:33:03;;;;;;;2.65;1.23;;;12.00;99.90;;;;;;5054015;28;20045;-58
2023/07/22 01:35:28;;;;;;;3.78;1.35;;;12.00;99.90;;;;;;5054785;28;20068;-57
2023/07/22 01:37:54;;;;;;;5.13;1.38;;;12.00;99.90;;;;;;5072219;28;20087;-58
2023/07/22 01:40:20;;;;;;;5.35;1.58;;;11.90;99.90;;;;;;5054152;28;20115;-58
2023/07/22 01:42:46;;;;;;;5.57;2.17;;;11.90;99.90;;;;;;5054472;28;20063;-57
2023/07/22 01:45:12;;;;;;;2.83;1.35;;;11.80;99.90;;;;;;5054515;28;20044;-58
2023/07/22 01:47:39;;;;;;;6.82;1.15;;;11.70;99.90;;;;;;5053878;28;20119;-58
2023/07/22 01:50:08;;;;;;;3.33;1.75;;;11.70;99.90;;;;;;5054362;28;20036;-58
2023/07/22 01:52:34;;;;;;;3.55;1.55;;;11.70;99.90;;;;;;5059093;28;20032;-58
2023/07/22 01:55:00;;;;;;;4.10;1.40;;;11.70;99.90;;;;;;5091912;28;20127;-58
2023/07/22 01:57:26;;;;;;;5.93;1.98;;;11.70;99.90;;;;;;5074193;28;20044;-58
2023/07/22 01:59:52;;;;;;;3.97;1.70;;;11.70;99.90;;;;;;5071174;28;20040;-58
2023/07/22 02:02:19;;;;;;;3.38;0.95;;;11.70;99.90;;;;;;5054451;28;20056;-57
2023/07/22 02:04:45;;;;;;;2.85;1.25;;;11.70;99.90;;;;;;5054062;28;20041;-58
2023/07/22 02:07:10;;;;;;;4.28;1.50;;;11.70;99.90;;;;;;5053650;28;20047;-58
2023/07/22 02:09:36;;;;;;;3.72;1.45;;;11.70;99.90;;;;;;5054280;28;20044;-58
2023/07/22 02:12:02;;;;;;;2.28;1.10;;;11.80;99.90;;;;;;5054228;28;20047;-58
2023/07/22 02:14:28;;;;;;;4.47;1.27;;;11.80;99.90;;;;;;5036141;28;20370;-58
2023/07/22 02:16:54;;;;;;;3.83;1.50;;;11.80;99.90;;;;;;5053918;28;20051;-57
2023/07/22 02:19:20;;;;;;;3.85;1.63;;;11.90;99.90;;;;;;5053638;28;20048;-58
2023/07/22 02:21:46;;;;;;;2.75;1.40;;;11.90;99.90;;;;;;5053350;28;20133;-57
2023/07/22 02:24:14;;;;;;;2.88;1.45;;;11.90;99.90;;;;;;5054041;28;20087;-58
2023/07/22 02:26:40;;;;;;;7.22;1.80;;;12.00;99.90;;;;;;5060174;28;20141;-57
2023/07/22 02:29:07;;;;;;;3.75;1.80;;;12.00;99.90;;;;;;5051247;28;20108;-57
2023/07/22 02:31:33;;;;;;;3.75;1.65;;;12.10;99.90;;;;;;5033890;28;20484;-59
2023/07/22 02:33:59;;;;;;;6.75;1.25;;;12.20;99.90;;;;;;5051488;28;20072;-58
2023/07/22 02:36:24;;;;;;;2.92;1.25;;;12.20;99.90;;;;;;5032994;28;20041;-58
2023/07/22 02:38:50;;;;;;;3.38;1.42;;;12.30;99.90;;;;;;5033378;28;20037;-58
2023/07/22 02:41:16;;;;;;;4.10;1.60;;;12.30;99.90;;;;;;5051420;28;20041;-58
2023/07/22 02:43:43;;;;;;;3.20;1.02;;;12.40;99.90;;;;;;5033193;28;20041;-58
2023/07/22 02:46:09;;;;;;;2.90;1.27;;;12.50;99.90;;;;;;5051366;28;20112;-57
2023/07/22 02:48:35;;;;;;;4.90;1.92;;;12.50;99.90;;;;;;5054129;28;20131;-58
2023/07/22 02:51:08;;;;;;;4.03;1.48;;;12.60;99.90;;;;;;5052671;28;20436;-57
2023/07/22 02:53:36;;;;;;;4.15;1.08;;;12.60;99.90;;;;;;5052926;28;20526;-57
2023/07/22 02:56:03;;;;;;;2.55;1.00;;;12.60;99.90;;;;;;5036106;28;20046;-58
2023/07/22 02:58:29;;;;;;;3.35;1.25;;;12.60;99.90;;;;;;5071299;28;20082;-58
2023/07/22 03:00:57;;;;;;;6.35;1.80;;;12.60;99.90;;;;;;5090709;28;20067;-58
2023/07/22 03:03:23;;;;;;;4.35;1.63;;;12.60;99.90;;;;;;5090916;28;20105;-58
2023/07/22 03:05:49;;;;;;;2.08;1.08;;;12.70;99.90;;;;;;5073374;28;20048;-58
2023/07/22 03:08:15;;;;;;;3.55;1.88;;;12.70;99.90;;;;;;5072724;28;20044;-58
2023/07/22 03:10:43;;;;;;;3.42;1.23;;;12.70;99.90;;;;;;5090407;28;20457;-58
2023/07/22 03:13:09;;;;;;;4.32;1.58;;;12.70;99.90;;;;;;5072679;28;20044;-59
2023/07/22 03:15:35;;;;;;;2.90;1.63;;;12.70;99.90;;;;;;5075680;28;20529;-58
2023/07/22 03:18:01;;;;;;;5.05;1.50;;;12.80;99.90;;;;;;5052085;28;20040;-58
2023/07/22 03:20:27;;;;;;;3.50;1.67;;;12.80;99.90;;;;;;5052719;28;20081;-59
2023/07/22 03:22:53;;;;;;;3.47;1.40;;;12.80;99.90;;;;;;5052458;28;20447;-59
2023/07/22 03:25:20;;;;;;;3.30;1.52;;;12.90;99.90;;;;;;5051961;28;20044;-58
2023/07/22 03:27:46;;;;;;;9.88;1.98;;;12.90;99.90;;;;;;5072616;28;20386;-59
2023/07/22 03:30:14;;;;;;;2.88;1.30;;;12.90;99.90;;;;;;5072356;28;20048;-58
2023/07/22 03:32:42;;;;;;;3.17;1.30;;;12.90;99.90;;;;;;5072031;28;20470;-58
2023/07/22 03:35:11;;;;;;;5.43;1.55;;;13.00;99.90;;;;;;5072690;28;20044;-58
2023/07/22 03:37:38;;;;;;;4.63;1.30;;;13.00;99.90;;;;;;5071921;28;20480;-58
2023/07/22 03:40:10;;;;;;;4.50;1.35;;;13.00;99.90;;;;;;5072382;28;20089;-58
2023/07/22 03:42:36;;;;;;;2.17;1.10;;;13.10;99.90;;;;;;5090603;28;20039;-58
2023/07/22 03:45:02;;;;;;;3.67;1.65;;;13.10;99.90;;;;;;5071469;28;20444;-58
2023/07/22 03:47:28;;;;;;;7.32;1.92;;;13.10;99.90;;;;;;5090292;28;20142;-58
2023/07/22 03:49:54;;;;;;;6.10;2.13;;;13.10;99.90;;;;;;5090177;28;20071;-58
2023/07/22 03:52:20;;;;;;;3.38;1.42;;;13.20;99.90;;;;;;5071268;28;20044;-58
2023/07/22 03:54:45;;;;;;;3.47;1.23;;;13.20;99.90;;;;;;5072317;28;20051;-58
2023/07/22 03:57:11;;;;;;;1.90;1.08;;;13.20;99.90;;;;;;5090335;28;20044;-59
2023/07/22 03:59:38;;;;;;;2.90;1.30;;;13.20;99.90;;;;;;5089757;28;20075;-58
2023/07/22 04:02:05;;;;;;;3.50;1.00;;;13.20;99.90;;;;;;5090040;28;20502;-58
2023/07/22 04:04:31;;;;;;;4.90;1.75;;;13.30;99.90;;;;;;5088882;28;20109;-58
2023/07/22 04:06:57;;;;;;;4.25;1.60;;;13.30;99.90;;;;;;5087759;28;20549;-58
2023/07/22 04:09:23;;;;;;;3.97;2.13;;;13.30;99.90;;;;;;5089969;28;20261;-58
2023/07/22 04:11:48;;;;;;;4.28;1.70;;;13.30;99.90;;;;;;5089730;28;20043;-58
2023/07/22 04:14:15;;;;;;;5.45;1.38;;;13.30;99.90;;;;;;5089283;28;20032;-58
2023/07/22 04:16:41;;;;;;;6.28;2.30;;;13.30;99.90;;;;;;5071509;28;20089;-58
2023/07/22 04:19:07;;;;;;;2.85;1.20;;;13.30;99.90;;;;;;5071485;28;20040;-58
2023/07/22 04:21:33;;;;;;;3.15;1.73;;;13.30;99.90;;;;;;5089103;28;20036;-58
2023/07/22 04:23:58;;;;;;;4.60;1.65;;;13.30;99.90;;;;;;5089864;28;20036;-58
2023/07/22 04:26:24;;;;;;;9.55;1.70;;;13.40;99.90;;;;;;5071281;28;20102;-58
2023/07/22 04:28:50;;;;;;;7.30;2.35;;;13.40;99.90;;;;;;5070829;28;20044;-58
2023/07/22 04:31:16;;;;;;;5.05;2.58;;;13.40;99.90;;;;;;5071665;28;20052;-58
2023/07/22 04:33:42;;;;;;;4.95;1.58;;;13.40;99.90;;;;;;5070866;28;20489;-58
2023/07/22 04:36:07;;;;;;;4.72;1.90;;;13.40;99.90;;;;;;5070885;28;20040;-58
2023/07/22 04:38:33;;;;;;;4.45;1.85;;;13.40;99.90;;;;;;5071827;28;20039;-58
2023/07/22 04:41:02;;;;;;;5.43;2.13;;;13.50;99.90;;;;;;5070666;28;20377;-58
2023/07/22 04:43:27;;;;;;;5.25;1.95;;;13.50;99.90;;;;;;5071276;28;20048;-58
2023/07/22 04:45:53;;;;;;;7.43;2.40;;;13.50;99.90;;;;;;5071043;28;20044;-58
2023/07/22 04:48:20;;;;;;;6.40;2.10;;;13.50;99.90;;;;;;5088635;28;20119;-58
2023/07/22 04:50:46;;;;;;;3.53;1.42;;;13.50;99.90;;;;;;5089046;28;20040;-59
2023/07/22 04:53:13;;;;;;;4.88;2.13;;;13.50;99.90;;;;;;5071217;28;20119;-58
2023/07/22 04:55:40;;;;;;;5.60;1.95;;;13.50;99.90;;;;;;5070665;28;20036;-58
2023/07/22 04:58:06;;;;;;;7.55;2.25;;;13.60;99.90;;;;;;5071414;28;20051;-58
2023/07/22 05:00:33;;;;;;;5.32;1.67;;;13.60;99.90;;;;;;5083989;28;20048;-59
2023/07/22 05:02:59;;;;;;;5.15;1.73;;;13.60;99.90;;;;;;5070521;28;20393;-58
2023/07/22 05:05:25;;;;;;;6.03;1.95;;;13.60;99.90;;;;;;5087736;28;20048;-58
2023/07/22 05:07:52;;;;;;;6.18;2.17;;;13.60;99.90;;;;;;5089166;28;20043;-58
2023/07/22 05:10:19;;;;;;;8.68;2.92;;;13.60;99.90;;;;;;5070460;28;20535;-58
2023/07/22 05:12:45;;;;;;;4.68;1.85;;;13.70;99.90;;;;;;5071053;28;20036;-58
2023/07/22 05:15:12;;;;;;;7.60;3.03;;;13.70;99.90;;;;;;5070968;28;20040;-58
2023/07/22 05:17:38;;;;;;;9.07;2.33;;;13.80;99.90;;;;;;5053771;28;20036;-58
2023/07/22 05:20:13;;;;;;;6.18;2.10;;;13.80;99.90;;;;;;5088868;28;20055;-58
2023/07/22 05:22:40;;;;;;;7.75;2.45;;;13.90;99.90;;;;;;5070259;28;20048;-58
2023/07/22 05:25:06;;;;;;;5.80;2.28;;;14.00;99.90;;;;;;5088981;28;20071;-58
2023/07/22 05:27:33;;;;;;;5.32;1.85;;;14.00;99.90;;;;;;5088721;28;20442;-58
2023/07/22 05:29:59;;;;;;;5.50;2.42;;;14.00;99.90;;;;;;5053540;28;20040;-58
2023/07/22 05:32:25;;;;;;;5.43;2.72;;;14.10;99.90;;;;;;5071008;28;20381;-59
2023/07/22 05:34:51;;;;;;;7.07;2.70;;;14.10;99.90;;;;;;5071027;28;20094;-58
2023/07/22 05:37:17;;;;;;;7.50;2.42;;;14.10;99.90;;;;;;5070075;28;20506;-58
2023/07/22 05:39:42;;;;;;;8.75;2.90;;;14.20;99.90;;;;;;5070696;28;20044;-58
2023/07/22 05:42:08;;;;;;;5.88;2.40;;;14.20;99.90;;;;;;5070836;28;20040;-58
2023/07/22 05:44:34;;;;;;;6.53;3.08;;;14.30;99.90;;;;;;5088166;28;20177;-57
2023/07/22 05:47:00;;;;;;;6.45;2.70;;;14.40;99.90;;;;;;5070451;28;20056;-58
2023/07/22 05:49:25;;;;;;;7.18;2.90;;;14.40;99.90;;;;;;5073272;28;20040;-58
2023/07/22 05:51:52;;;;;;;7.22;2.25;;;14.40;99.90;;;;;;5092088;28;20036;-57
2023/07/22 05:54:17;;;;;;;5.95;2.00;;;14.40;99.90;;;;;;5074598;28;20032;-57
2023/07/22 05:56:43;;;;;;;8.57;3.03;;;14.50;99.90;;;;;;5092486;28;20038;-57
2023/07/22 05:59:09;;;;;;;8.15;3.60;;;14.50;99.90;;;;;;5075055;28;20036;-58
2023/07/22 06:01:35;;;;;;;6.32;2.67;;;14.50;99.90;;;;;;5090767;28;20036;-58
2023/07/22 06:04:01;;;;;;;8.73;3.20;;;14.50;99.90;;;;;;5081701;28;20062;-57
2023/07/22 06:06:27;;;;;;;9.27;3.33;;;14.60;99.90;;;;;;5073827;28;20035;-57
2023/07/22 06:08:53;;;;;;;5.57;2.55;;;14.60;99.90;;;;;;5074007;28;20052;-57
2023/07/22 06:11:19;;;;;;;6.38;2.60;;;14.70;99.90;;;;;;5073774;28;20054;-58
2023/07/22 06:13:44;;;;;;;9.10;2.90;;;14.80;99.90;;;;;;5056644;28;20105;-57
2023/07/22 06:16:10;;;;;;;4.43;1.92;;;14.80;99.90;;;;;;5057530;28;20093;-58
2023/07/22 06:18:36;;;;;;;6.22;2.28;;;14.90;99.90;;;;;;5092231;28;20063;-58
2023/07/22 06:21:02;;;;;;;6.22;2.60;;;15.00;99.90;;;;;;5092168;28;20485;-57
2023/07/22 06:23:28;;;;;;;4.43;1.73;;;15.00;99.90;;;;;;5073924;28;20075;-57
2023/07/22 06:25:54;;;;;;;8.90;2.67;;;15.10;99.90;;;;;;5073068;28;20091;-58
2023/07/22 06:28:20;;;;;;;4.38;2.35;;;15.10;99.90;;;;;;5091539;28;20048;-58
2023/07/22 06:30:45;;;;;;;7.07;2.47;;;15.10;99.90;;;;;;5073334;28;20072;-57
2023/07/22 06:33:11;;;;;;;6.15;2.53;;;15.10;99.90;;;;;;5072862;28;20036;-58
2023/07/22 06:35:37;;;;;;;8.23;2.45;;;15.20;99.90;;;;;;5073229;28;20040;-57
2023/07/22 06:38:03;;;;;;;7.53;2.65;;;15.30;99.90;;;;;;5091062;28;20036;-57
2023/07/22 06:40:28;;;;;;;3.72;1.77;;;15.30;99.90;;;;;;5072925;28;20515;-57
2023/07/22 06:42:54;;;;;;;6.72;2.40;;;15.30;99.90;;;;;;5091430;28;20048;-57
2023/07/22 06:45:20;;;;;;;6.50;2.58;;;15.40;99.90;;;;;;5073027;28;20059;-58
2023/07/22 06:47:46;;;;;;;5.47;2.55;;;15.40;99.90;;;;;;5091005;28;20094;-57
2023/07/22 06:50:12;;;;;;;4.63;2.58;;;15.50;99.90;;;;;;5073374;28;20046;-57
2023/07/22 06:52:38;;;;;;;5.75;2.05;;;15.50;99.90;;;;;;5091220;28;20036;-57
2023/07/22 06:55:04;;;;;;;10.93;2.55;;;15.50;99.90;;;;;;5072557;28;20040;-57
2023/07/22 06:57:31;;;;;;;4.97;2.08;;;15.60;99.90;;;;;;5073508;28;20036;-57
2023/07/22 06:59:57;;;;;;;7.55;2.72;;;15.60;99.90;;;;;;5071942;28;20126;-58
2023/07/22 07:02:23;;;;;;;4.63;1.95;;;15.70;99.90;;;;;;5090857;28;20166;-57
2023/07/22 07:04:49;;;;;;;6.65;2.22;;;15.80;99.90;;;;;;5091303;28;20213;-57
2023/07/22 07:07:16;;;;;;;5.18;2.95;;;15.80;99.90;;;;;;5072943;28;20133;-58
2023/07/22 07:09:42;;;;;;;5.57;2.63;;;15.80;99.90;;;;;;5072291;28;20067;-58
2023/07/22 07:12:08;;;;;;;5.90;2.13;;;15.80;99.90;;;;;;5091083;28;20067;-58
2023/07/22 07:14:34;;;;;;;8.45;3.20;;;15.80;99.90;;;;;;5064390;28;20043;-57
2023/07/22 07:17:01;;;;;;;7.80;3.05;;;15.90;99.90;;;;;;5070364;28;20040;-57
2023/07/22 07:19:28;;;;;;;7.28;2.80;;;15.90;99.90;;;;;;5052731;28;20608;-58
2023/07/22 07:21:54;;;;;;;9.00;2.75;;;16.10;99.90;;;;;;5070159;28;20037;-57
2023/07/22 07:24:20;;;;;;;8.00;2.78;;;16.20;99.90;;;;;;5052651;28;20417;-58
2023/07/22 07:26:46;;;;;;;10.18;3.85;;;16.40;99.90;;;;;;5052361;28;20132;-57
2023/07/22 07:29:12;;;;;;;8.00;3.25;;;16.50;99.90;;;;;;5052110;28;20052;-58
2023/07/22 07:31:38;;;;;;;9.55;3.75;;;16.60;99.90;;;;;;5070319;28;20503;-58
2023/07/22 07:34:05;;;;;;;8.88;3.22;;;16.70;99.90;;;;;;5081349;28;20098;-58
2023/07/22 07:36:32;;;;;;;8.73;3.97;;;16.70;99.90;;;;;;5068452;28;20079;-58
2023/07/22 07:38:58;;;;;;;13.65;5.03;;;16.90;99.90;;;;;;5068890;28;20136;-57
2023/07/22 07:41:24;;;;;;;9.00;5.47;;;16.90;99.90;;;;;;5068943;28;20131;-58
2023/07/22 07:43:49;;;;;;;15.23;3.83;;;17.00;99.90;;;;;;5069796;28;20109;-58
2023/07/22 07:46:21;;;;;;;9.02;3.60;;;17.10;99.90;;;;;;5070296;28;20037;-57
2023/07/22 07:48:49;;;;;;;9.95;4.13;;;17.10;99.90;;;;;;5068792;28;20169;-58
2023/07/22 07:51:16;;;;;;;11.18;4.40;;;17.10;99.90;;;;;;5068185;28;20077;-58
2023/07/22 07:53:49;;;;;;;10.02;3.42;;;17.00;99.90;;;;;;5068979;28;20080;-58
2023/07/22 07:56:17;;;;;;;10.02;4.88;;;16.90;99.90;;;;;;5069893;28;20033;-58
2023/07/22 07:58:44;;;;;;;8.45;3.60;;;16.80;99.90;;;;;;5072028;28;20028;-58
2023/07/22 08:01:09;;;;;;;8.20;3.78;;;16.70;99.90;;;;;;5110603;28;20124;-58
2023/07/22 08:03:36;;;;;;;8.05;3.55;;;16.60;99.90;;;;;;5075563;28;20040;-58
2023/07/22 08:06:03;;;;;;;5.28;3.13;;;16.50;99.90;;;;;;5110348;28;20044;-59
2023/07/22 08:08:29;;;;;;;8.38;3.53;;;16.40;99.90;;;;;;5092069;28;20414;-58
2023/07/22 08:10:59;;;;;;;10.43;4.28;;;16.30;99.90;;;;;;5081499;28;20040;-59
2023/07/22 08:13:26;;;;;;;11.32;3.83;;;16.10;99.90;;;;;;5090071;28;20040;-59
2023/07/22 08:15:53;;;;;;;9.95;3.97;;;15.90;99.90;;;;;;5071706;28;20503;-58
2023/07/22 08:18:18;;;;;;;7.60;3.85;;;15.80;99.90;;;;;;5089251;28;20126;-57
2023/07/22 08:20:47;;;;;;;10.38;3.55;;;15.60;99.90;;;;;;5089622;28;20123;-57
2023/07/22 08:23:13;;;;;;;10.70;3.50;;;15.50;99.90;;;;;;5071406;28;20048;-58
2023/07/22 08:25:38;;;;;;;9.02;4.40;;;15.30;99.90;;;;;;5070648;28;20079;-58
2023/07/22 08:28:04;;;;;;;8.25;3.22;;;15.30;99.90;;;;;;5089441;28;20086;-58
2023/07/22 08:30:30;;;;;;;5.85;3.25;;;15.30;99.90;;;;;;5089849;28;20560;-58
2023/07/22 08:32:56;;;;;;;9.35;3.85;;;15.20;99.90;;;;;;5054216;28;20378;-58
2023/07/22 08:35:22;;;;;;;7.38;3.35;;;15.30;99.90;;;;;;5054839;28;20124;-58
2023/07/22 08:37:48;;;;;;;8.25;2.60;;;15.30;99.90;;;;;;5051190;28;20040;-58
2023/07/22 08:40:14;;;;;;;11.32;3.97;;;15.30;99.90;;;;;;5050966;28;20040;-59
2023/07/22 08:42:41;;;;;;;8.20;4.03;;;15.40;99.90;;;;;;5051267;28;20539;-58
2023/07/22 08:45:11;;;;;;;9.68;4.60;;;15.50;99.90;;;;;;5051254;28;20045;-59
2023/07/22 08:47:46;;;;;;;7.05;3.05;;;15.60;99.90;;;;;;5050879;28;20089;-58
2023/07/22 08:50:19;;;;;;;7.70;3.22;;;15.70;99.90;;;;;;5051532;28;20037;-58
2023/07/22 08:52:46;;;;;;;8.77;3.08;;;15.70;99.90;;;;;;5050843;28;20389;-59
2023/07/22 08:55:13;;;;;;;5.13;2.30;;;15.80;99.90;;;;;;5068910;28;20451;-59
2023/07/22 08:57:39;;;;;;;5.20;1.88;;;15.80;99.90;;;;;;5069163;28;20127;-59
2023/07/22 09:00:09;;;;;;;1.45;0.85;;;15.90;99.90;;;;;;5082278;28;20039;-59
2023/07/22 09:02:37;;;;;;;2.80;1.02;;;15.80;99.90;;;;;;5073960;28;20369;-59
2023/07/22 09:05:03;;;;;;;3.47;1.00;;;15.90;99.90;;;;;;5058023;28;20044;-59
2023/07/22 09:07:30;;;;;;;2.03;0.80;;;15.90;99.90;;;;;;5097544;28;20036;-59
2023/07/22 09:09:58;;;;;;;1.88;0.60;;;15.90;99.90;;;;;;5089730;28;20117;-59
2023/07/22 09:12:25;;;;;;;1.27;0.80;;;15.90;99.90;;;;;;5088109;28;20495;-59
2023/07/22 09:14:52;;;;;;;2.50;0.82;;;15.90;99.90;;;;;;5069305;28;20480;-59
2023/07/22 09:17:18;;;;;;;1.42;0.70;;;15.90;99.90;;;;;;5071245;28;20593;-59
2023/07/22 09:19:43;;;;;;;1.98;0.70;;;15.90;99.90;;;;;;5089016;28;20075;-60
2023/07/22 09:22:09;;;;;;;1.48;0.68;;;16.00;99.90;;;;;;5071024;28;20126;-59
2023/07/22 09:24:35;;;;;;;2.38;0.93;;;16.00;99.90;;;;;;5093236;28;20400;-60
2023/07/22 09:27:01;;;;;;;2.53;0.82;;;16.00;99.90;;;;;;5092327;28;20105;-60
2023/07/22 09:29:44;;;;;;;1.75;1.00;;;16.00;99.90;;;;;;5092522;28;20036;-60
2023/07/22 09:32:10;;;;;;;2.75;1.05;;;16.00;99.90;;;;;;5054760;28;20087;-59
2023/07/22 09:34:36;;;;;;;3.35;1.00;;;16.10;99.90;;;;;;5054681;28;20076;-59
2023/07/22 09:37:03;;;;;;;2.53;1.40;;;16.10;99.90;;;;;;5054736;28;20116;-59
2023/07/22 09:39:29;;;;;;;1.17;0.93;;;16.10;99.90;;;;;;5072449;28;20045;-60
2023/07/22 09:41:56;;;;;;;3.10;1.13;;;16.10;99.90;;;;;;5053803;28;20047;-58
2023/07/22 09:44:22;;;;;;;2.22;1.00;;;16.10;99.90;;;;;;5072478;28;20040;-59
2023/07/22 09:46:51;;;;;;;2.63;1.52;;;16.10;99.90;;;;;;5072765;28;20447;-59
2023/07/22 09:49:18;;;;;;;3.78;1.70;;;16.20;99.90;;;;;;5068801;28;20032;-59
2023/07/22 09:51:44;;;;;;;3.88;1.50;;;16.10;99.90;;;;;;5092651;28;20101;-59
2023/07/22 09:54:10;;;;;;;5.85;1.48;;;16.10;99.90;;;;;;5092412;28;20075;-59
2023/07/22 09:56:50;;;;;;;1.83;0.88;;;16.00;99.90;;;;;;5091816;28;20046;-59
2023/07/22 09:59:17;;;;;;;;;;;16.00;99.90;;;;;;5063974;28;20044;-58
2023/07/22 10:01:46;;;;;;;3.75;1.92;;;16.00;99.90;;;;;;5094581;28;19922;-59
2023/07/22 10:04:16;;;;;;;3.90;1.98;;;16.00;99.90;;;;;;5096120;28;20565;-59
2023/07/22 10:06:43;;;;;;;9.10;1.50;;;16.00;99.90;;;;;;5074292;28;20051;-60
2023/07/22 10:09:11;;;;;;;1.98;1.30;;;16.00;99.90;;;;;;5073882;28;20040;-59
2023/07/22 10:11:38;;;;;;;3.05;1.40;;;16.10;99.90;;;;;;5073642;28;20082;-59
2023/07/22 10:14:05;;;;;;;2.30;1.27;;;16.20;99.90;;;;;;5073775;28;20040;-58
2023/07/22 10:16:31;;;;;;;3.00;1.77;;;16.20;99.90;;;;;;5073991;28;20502;-58
2023/07/22 10:18:59;;;;;;;3.28;1.45;;;16.30;99.90;;;;;;5091548;28;20101;-58
2023/07/22 10:21:25;;;;;;;5.68;1.77;;;16.30;99.90;;;;;;5092121;28;20048;-58
2023/07/22 10:23:52;;;;;;;3.67;2.05;;;16.20;99.90;;;;;;5072973;28;20048;-57
2023/07/22 10:26:19;;;;;;;3.55;1.85;;;16.20;99.90;;;;;;5073528;28;20185;-57
2023/07/22 10:28:47;;;;;;;5.35;2.08;;;16.20;99.90;;;;;;5073819;28;20044;-58
2023/07/22 10:31:18;;;;;;;3.50;1.85;;;16.10;99.90;;;;;;5073107;28;20039;-58
2023/07/22 10:33:46;;;;;;;5.78;2.20;;;16.10;99.90;;;;;;5091039;28;20047;-58
2023/07/22 10:36:18;;;;;;;4.15;1.95;;;16.10;99.90;;;;;;5057240;28;20530;-58
2023/07/22 10:38:54;;;;;;;2.85;1.85;;;16.10;99.90;;;;;;5091001;28;20497;-58
2023/07/22 10:41:21;;;;;;;4.72;1.50;;;16.10;99.90;;;;;;5073550;28;20130;-58
2023/07/22 10:43:55;;;;;;;2.78;1.83;;;16.10;99.90;;;;;;5073359;28;20039;-58
2023/07/22 10:46:38;;;;;;;3.95;2.33;;;16.10;99.90;;;;;;5073153;28;20162;-58
2023/07/22 10:49:14;;;;;;;5.50;2.17;;;16.10;99.90;;;;;;5073604;28;20095;-58
2023/07/22 10:51:40;;;;;;;3.47;1.90;;;16.10;99.90;;;;;;5090806;28;20538;-58
2023/07/22 10:54:36;;;;;;;4.07;1.63;;;16.10;99.90;;;;;;5073522;28;20111;-58
2023/07/22 10:57:17;;;;;;;3.22;1.88;;;16.00;99.90;;;;;;5073491;28;20542;-57
2023/07/22 10:59:50;;;;;;;4.35;1.95;;;15.90;99.90;;;;;;5072323;28;20044;-57
2023/07/22 11:02:27;;;;;;;6.60;2.00;;;15.80;99.90;;;;;;5091428;28;20566;-57
2023/07/22 11:04:53;;;;;;;4.65;2.00;;;15.80;99.90;;;;;;5091188;28;20044;-57
2023/07/22 11:08:02;;;;;;;2.13;1.33;;;15.70;99.90;;;;;;5072628;28;20042;-61
2023/07/22 11:10:28;;;;;;;;;;;15.70;99.90;;;;;;4973416;28;20034;-61
2023/07/22 11:12:54;;;;;;;4.93;2.20;;;15.70;99.90;;;;;;4972082;28;19996;-61
2023/07/22 11:15:21;;;;;;;3.58;1.92;;;15.70;99.90;;;;;;4988731;28;20065;-62
2023/07/22 11:17:48;;;;;;;3.50;1.45;;;15.70;99.90;;;;;;4988889;28;20415;-62
2023/07/22 11:20:14;;;;;;;6.03;1.83;;;15.70;99.90;;;;;;4971907;28;20042;-61
2023/07/22 11:22:41;;;;;;;3.47;1.65;;;15.60;99.90;;;;;;4976732;28;20172;-61
2023/07/22 11:25:07;;;;;;;7.55;2.13;;;15.60;99.90;;;;;;4992265;28;20135;-61
2023/07/22 11:27:33;;;;;;;3.90;2.30;;;15.60;99.90;;;;;;4991354;28;20054;-63
2023/07/22 11:29:59;;;;;;;3.00;1.50;;;15.60;99.90;;;;;;5008384;28;20030;-62
2023/07/22 11:32:25;;;;;;;3.95;1.83;;;15.50;99.90;;;;;;4992265;28;20050;-62
2023/07/22 11:34:53;;;;;;;4.63;2.35;;;15.50;99.90;;;;;;4991367;28;20053;-61
2023/07/22 11:37:19;;;;;;;5.70;2.47;;;15.50;99.90;;;;;;4991856;28;20057;-61
2023/07/22 11:39:46;;;;;;;6.55;2.33;;;15.50;99.90;;;;;;4975827;28;20084;-63
2023/07/22 11:42:12;;;;;;;4.60;2.40;;;15.40;99.90;;;;;;4973635;28;20052;-61
2023/07/22 11:44:38;;;;;;;4.35;2.35;;;15.40;99.90;;;;;;5027687;28;20083;-62
2023/07/22 11:47:07;;;;;;;4.53;2.63;;;15.40;99.90;;;;;;5031122;28;20060;-62
2023/07/22 11:49:48;;;;;;;6.05;2.38;;;15.50;99.90;;;;;;5031470;28;20044;-61
2023/07/22 11:52:17;;;;;;;3.17;2.15;;;15.50;99.90;;;;;;5048837;28;20120;-62
2023/07/22 11:54:44;;;;;;;;;;;15.50;99.90;;;;;;5032202;28;20032;-63
2023/07/22 11:57:18;;;;;;;5.28;2.92;;;15.50;99.90;;;;;;5051827;28;19974;-64
2023/07/22 11:59:48;;;;;;;8.85;2.65;;;15.50;99.90;;;;;;5069780;28;20040;-60
2023/07/22 12:02:20;;;;;;;3.90;1.80;;;15.50;99.90;;;;;;5051538;28;20101;-61
2023/07/22 12:04:52;;;;;;;5.70;2.63;;;15.50;99.90;;;;;;5051882;28;20560;-62
2023/07/22 12:07:23;;;;;;;6.47;2.97;;;15.60;99.90;;;;;;5051879;28;20076;-61
2023/07/22 12:09:49;;;;;;;7.95;2.88;;;15.60;99.90;;;;;;5051303;28;20045;-61
2023/07/22 12:12:15;;;;;;;6.13;2.72;;;15.70;99.90;;;;;;5051373;28;20067;-61
2023/07/22 12:14:41;;;;;;;5.55;2.60;;;15.70;99.90;;;;;;5069552;28;20064;-61
2023/07/22 12:17:09;;;;;;;5.43;2.80;;;15.70;99.90;;;;;;5050579;28;20123;-61
2023/07/22 12:19:35;;;;;;;5.45;2.38;;;15.80;99.90;;;;;;5051694;28;20574;-61
2023/07/22 12:22:01;;;;;;;5.63;2.53;;;15.80;99.90;;;;;;5068341;28;20040;-61
2023/07/22 12:24:28;;;;;;;6.35;3.20;;;15.90;99.90;;;;;;5051109;28;20050;-61
2023/07/22 12:26:54;;;;;;;8.15;3.53;;;15.90;99.90;;;;;;5047922;28;20083;-61
2023/07/22 12:29:25;;;;;;;8.05;2.58;;;16.00;99.90;;;;;;5071527;28;20056;-61
2023/07/22 12:31:52;;;;;;;5.50;2.75;;;16.10;99.90;;;;;;5071109;28;20095;-62
2023/07/22 12:34:17;;;;;;;5.72;3.38;;;16.10;99.90;;;;;;5071489;28;20048;-61
2023/07/22 12:36:43;;;;;;;7.85;2.30;;;16.10;99.90;;;;;;5089032;28;20036;-61
2023/07/22 12:39:09;;;;;;;8.65;2.97;;;16.20;99.90;;;;;;5071435;28;20115;-61
2023/07/22 12:41:35;;;;;;;5.88;3.10;;;16.20;99.90;;;;;;5071288;28;20040;-60
2023/07/22 12:44:01;;;;;;;5.28;2.85;;;16.20;99.90;;;;;;5070802;28;20040;-60
2023/07/22 12:46:27;;;;;;;6.80;2.45;;;16.20;99.90;;;;;;5071671;28;20058;-61